Time;durP1;ratioP1;P1;durP2;ratioP2;P2;SDS_P1;SDS_P2;PMS_P1;PMS_P2;Temp;Humidity;BMP_temperature;BMP_pressure;BME280_temperature;BME280_humidity;BME280_pressure;Samples;Min_cycle;Max_cycle;Signal;HPM_P1;HPM_P2
2022/06/09 00:02:24;;;;;;;3.97;1.02;;;;;;;;;;5016590;28;20033;-82
2022/06/09 00:04:49;;;;;;;4.53;1.25;;;;;;;;;;4985619;28;20037;-81
2022/06/09 00:07:18;;;;;;;3.67;1.10;;;;;;;;;;5010542;28;20046;-82
2022/06/09 00:10:03;;;;;;;4.40;1.00;;;;;;;;;;5010888;28;20455;-82
2022/06/09 00:12:30;;;;;;;4.63;1.30;;;;;;;;;;4995121;28;20026;-82
2022/06/09 00:14:57;;;;;;;3.70;1.42;;;;;;;;;;5011554;28;20046;-82
2022/06/09 00:17:24;;;;;;;4.82;1.73;;;;;;;;;;5011158;28;20061;-82
2022/06/09 00:19:49;;;;;;;3.67;0.70;;;;;;;;;;5011247;28;20084;-82
2022/06/09 00:22:15;;;;;;;3.40;0.80;;;;;;;;;;5010782;28;20416;-82
2022/06/09 00:24:40;;;;;;;4.28;1.13;;;;;;;;;;4993744;28;20041;-82
2022/06/09 00:27:06;;;;;;;4.53;1.10;;;;;;;;;;5014258;28;20154;-82
2022/06/09 00:29:31;;;;;;;3.35;1.00;;;;;;;;;;5013706;28;20073;-82
2022/06/09 00:31:57;;;;;;;3.80;0.70;;;;;;;;;;5014144;28;20041;-82
2022/06/09 00:34:22;;;;;;;4.70;1.20;;;;;;;;;;5014273;28;20052;-82
2022/06/09 00:36:47;;;;;;;4.90;1.13;;;;;;;;;;5010705;28;20034;-82
2022/06/09 00:39:13;;;;;;;3.70;0.90;;;;;;;;;;4994391;28;20061;-82
2022/06/09 00:41:40;;;;;;;3.85;0.90;;;;;;;;;;4994186;28;20041;-82
2022/06/09 00:44:21;;;;;;;4.25;0.93;;;;;;;;;;4994468;28;20065;-82
2022/06/09 00:47:05;;;;;;;4.53;1.40;;;;;;;;;;5011310;28;20046;-81
2022/06/09 00:50:01;;;;;;;5.28;1.27;;;;;;;;;;4997557;28;20049;-82
2022/06/09 00:52:28;;;;;;;7.20;1.20;;;;;;;;;;5013953;28;20514;-81
2022/06/09 00:54:58;;;;;;;6.18;1.15;;;;;;;;;;5014311;28;20057;-82
2022/06/09 00:57:29;;;;;;;4.57;1.52;;;;;;;;;;4997806;28;20040;-81
2022/06/09 00:59:57;;;;;;;5.07;0.82;;;;;;;;;;4997569;28;20037;-81
2022/06/09 01:02:22;;;;;;;5.93;1.55;;;;;;;;;;4983613;28;20048;-82
2022/06/09 01:04:49;;;;;;;5.78;1.30;;;;;;;;;;4994454;28;20061;-81
2022/06/09 01:07:37;;;;;;;7.00;1.65;;;;;;;;;;4993580;28;20034;-82
2022/06/09 01:10:03;;;;;;;4.47;1.15;;;;;;;;;;5010080;28;20057;-82
2022/06/09 01:12:34;;;;;;;7.18;1.40;;;;;;;;;;5010571;28;20038;-82
2022/06/09 01:15:03;;;;;;;4.45;1.27;;;;;;;;;;5010400;28;20056;-82
2022/06/09 01:17:50;;;;;;;9.73;1.90;;;;;;;;;;5012309;28;20037;-81
2022/06/09 01:20:57;;;;;;;6.20;1.50;;;;;;;;;;5013865;28;20038;-82
2022/06/09 01:23:50;;;;;;;7.78;1.85;;;;;;;;;;5014092;28;20092;-81
2022/06/09 01:26:23;;;;;;;6.90;1.73;;;;;;;;;;5030877;28;20046;-82
2022/06/09 01:29:18;;;;;;;5.30;1.30;;;;;;;;;;5013895;28;20025;-81
2022/06/09 01:32:00;;;;;;;4.70;1.45;;;;;;;;;;5012963;28;20038;-82
2022/06/09 01:35:11;;;;;;;5.10;1.48;;;;;;;;;;4996229;28;20412;-81
2022/06/09 01:37:47;;;;;;;4.57;1.42;;;;;;;;;;5033158;28;20053;-82
2022/06/09 01:40:13;;;;;;;7.97;1.80;;;;;;;;;;4985220;28;20052;-81
2022/06/09 01:42:41;;;;;;;5.32;1.30;;;;;;;;;;4985109;28;20465;-81
2022/06/09 01:45:14;;;;;;;6.07;1.52;;;;;;;;;;5001012;28;20041;-81
2022/06/09 01:47:47;;;;;;;4.47;1.20;;;;;;;;;;5017653;28;20029;-82
2022/06/09 01:50:26;;;;;;;6.03;1.30;;;;;;;;;;4992862;28;20040;-82
2022/06/09 01:52:52;;;;;;;5.10;2.22;;;;;;;;;;5038915;28;20065;-83
2022/06/09 01:55:19;;;;;;;8.00;1.55;;;;;;;;;;4987462;28;20403;-82
2022/06/09 01:57:47;;;;;;;8.13;1.85;;;;;;;;;;5013565;28;20030;-83
2022/06/09 02:00:14;;;;;;;6.00;1.52;;;;;;;;;;4997145;28;20540;-82
2022/06/09 02:02:46;;;;;;;5.97;1.23;;;;;;;;;;5010260;28;20599;-82
2022/06/09 02:05:23;;;;;;;8.13;2.08;;;;;;;;;;4996779;28;20153;-82
2022/06/09 02:07:49;;;;;;;5.70;1.98;;;;;;;;;;5013340;28;20076;-82
2022/06/09 02:10:18;;;;;;;5.82;1.65;;;;;;;;;;5013214;28;20046;-82
2022/06/09 02:12:44;;;;;;;5.53;1.70;;;;;;;;;;4996874;28;20037;-82
2022/06/09 02:15:10;;;;;;;5.85;1.63;;;;;;;;;;5013311;28;20042;-82
2022/06/09 02:17:43;;;;;;;6.80;1.42;;;;;;;;;;5013117;28;20029;-82
2022/06/09 02:20:10;;;;;;;5.60;1.45;;;;;;;;;;5013093;28;20052;-82
2022/06/09 02:22:35;;;;;;;7.72;1.92;;;;;;;;;;4996790;28;20061;-82
2022/06/09 02:25:01;;;;;;;5.45;1.52;;;;;;;;;;5012672;28;20048;-83
2022/06/09 02:27:26;;;;;;;6.60;1.52;;;;;;;;;;5005465;28;20056;-83
2022/06/09 02:29:52;;;;;;;5.93;1.50;;;;;;;;;;5015368;28;20049;-83
2022/06/09 02:32:18;;;;;;;7.75;2.10;;;;;;;;;;4999946;28;20377;-83
2022/06/09 02:34:43;;;;;;;9.95;1.70;;;;;;;;;;5015863;28;20036;-83
2022/06/09 02:37:09;;;;;;;3.30;1.38;;;;;;;;;;5004079;28;20033;-83
2022/06/09 02:39:34;;;;;;;4.40;1.58;;;;;;;;;;4980631;28;20064;-83
2022/06/09 02:42:01;;;;;;;4.38;1.98;;;;;;;;;;4980171;28;20427;-82
2022/06/09 02:44:26;;;;;;;7.05;1.70;;;;;;;;;;4980320;28;20224;-83
2022/06/09 02:46:52;;;;;;;5.15;1.55;;;;;;;;;;4996489;28;20082;-82
2022/06/09 02:49:17;;;;;;;8.20;1.95;;;;;;;;;;4990862;28;20365;-82
2022/06/09 02:51:43;;;;;;;5.82;1.95;;;;;;;;;;4999433;28;20455;-82
2022/06/09 02:54:12;;;;;;;5.03;1.65;;;;;;;;;;4999018;28;20117;-81
2022/06/09 02:56:42;;;;;;;6.57;1.77;;;;;;;;;;5016856;28;20041;-82
2022/06/09 02:59:07;;;;;;;5.00;1.55;;;;;;;;;;4999807;28;20029;-82
2022/06/09 03:01:33;;;;;;;6.13;1.60;;;;;;;;;;5000642;28;20117;-81
2022/06/09 03:03:58;;;;;;;7.38;2.03;;;;;;;;;;4995719;28;20058;-81
2022/06/09 03:06:24;;;;;;;7.28;1.75;;;;;;;;;;5012385;28;20034;-81
2022/06/09 03:08:49;;;;;;;5.95;2.22;;;;;;;;;;4995731;28;20042;-81
2022/06/09 03:11:15;;;;;;;5.45;1.38;;;;;;;;;;5012216;28;20140;-81
2022/06/09 03:13:41;;;;;;;7.05;2.17;;;;;;;;;;5011824;28;20030;-81
2022/06/09 03:16:06;;;;;;;5.63;1.83;;;;;;;;;;5012060;28;20038;-82
2022/06/09 03:18:32;;;;;;;6.95;2.47;;;;;;;;;;4995842;28;20536;-82
2022/06/09 03:20:57;;;;;;;5.55;2.08;;;;;;;;;;5011841;28;20415;-81
2022/06/09 03:23:23;;;;;;;6.25;1.45;;;;;;;;;;4995210;28;20037;-81
2022/06/09 03:25:48;;;;;;;7.75;2.42;;;;;;;;;;5012402;28;20054;-82
2022/06/09 03:28:14;;;;;;;4.63;1.80;;;;;;;;;;5015040;28;20373;-81
2022/06/09 03:30:40;;;;;;;6.93;1.67;;;;;;;;;;5015319;28;20109;-81
2022/06/09 03:33:05;;;;;;;8.30;2.30;;;;;;;;;;5015520;28;20037;-82
2022/06/09 03:35:31;;;;;;;5.72;1.33;;;;;;;;;;5015197;28;20033;-81
2022/06/09 03:37:56;;;;;;;6.03;1.98;;;;;;;;;;5011502;28;20030;-81
2022/06/09 03:40:23;;;;;;;6.38;2.10;;;;;;;;;;4995131;28;20045;-82
2022/06/09 03:42:49;;;;;;;5.65;1.75;;;;;;;;;;5001729;28;20037;-82
2022/06/09 03:45:16;;;;;;;5.38;2.17;;;;;;;;;;4981966;28;20037;-82
2022/06/09 03:47:41;;;;;;;3.97;1.80;;;;;;;;;;4998611;28;20488;-82
2022/06/09 03:50:08;;;;;;;6.07;1.92;;;;;;;;;;5006184;28;20094;-82
2022/06/09 03:52:33;;;;;;;6.20;1.90;;;;;;;;;;5001707;28;20041;-81
2022/06/09 03:54:59;;;;;;;9.00;2.13;;;;;;;;;;5034186;28;20033;-81
2022/06/09 03:57:24;;;;;;;6.97;2.03;;;;;;;;;;5001731;28;20044;-82
2022/06/09 03:59:50;;;;;;;5.25;1.75;;;;;;;;;;5001219;28;20029;-82
2022/06/09 04:02:15;;;;;;;4.75;1.70;;;;;;;;;;5001126;28;20459;-81
2022/06/09 04:04:41;;;;;;;6.78;1.73;;;;;;;;;;5010933;28;20038;-81
2022/06/09 04:07:06;;;;;;;8.88;2.30;;;;;;;;;;5011495;28;20046;-81
2022/06/09 04:09:31;;;;;;;5.38;2.05;;;;;;;;;;5027111;28;20420;-81
2022/06/09 04:11:57;;;;;;;8.98;2.13;;;;;;;;;;5010982;28;20443;-82
2022/06/09 04:14:22;;;;;;;5.75;2.20;;;;;;;;;;4978296;28;20029;-81
2022/06/09 04:16:48;;;;;;;7.50;2.03;;;;;;;;;;5011327;28;20400;-81
2022/06/09 04:19:16;;;;;;;5.22;2.05;;;;;;;;;;5011409;28;20407;-81
2022/06/09 04:21:41;;;;;;;6.95;2.30;;;;;;;;;;4978594;28;20034;-81
2022/06/09 04:24:07;;;;;;;7.03;2.30;;;;;;;;;;5027170;28;20519;-81
2022/06/09 04:26:34;;;;;;;10.23;2.92;;;;;;;;;;5030314;28;20033;-82
2022/06/09 04:29:00;;;;;;;6.55;2.15;;;;;;;;;;5014107;28;20029;-81
2022/06/09 04:31:25;;;;;;;4.95;2.30;;;;;;;;;;4997702;28;20038;-81
2022/06/09 04:33:51;;;;;;;10.40;2.20;;;;;;;;;;5014185;28;20086;-81
2022/06/09 04:36:17;;;;;;;7.90;1.83;;;;;;;;;;5011464;28;20042;-81
2022/06/09 04:38:42;;;;;;;3.72;1.65;;;;;;;;;;5014007;28;20092;-81
2022/06/09 04:41:09;;;;;;;6.00;2.53;;;;;;;;;;5014005;28;20415;-81
2022/06/09 04:43:45;;;;;;;7.13;1.95;;;;;;;;;;4997353;28;20029;-81
2022/06/09 04:46:13;;;;;;;7.20;2.22;;;;;;;;;;4997786;28;20037;-81
2022/06/09 04:48:39;;;;;;;8.77;2.38;;;;;;;;;;4997965;28;20025;-82
2022/06/09 04:51:05;;;;;;;5.80;1.80;;;;;;;;;;5013297;28;20044;-81
2022/06/09 04:53:31;;;;;;;6.18;2.00;;;;;;;;;;5023280;28;20040;-81
2022/06/09 04:55:56;;;;;;;6.57;1.73;;;;;;;;;;5023927;28;20037;-82
2022/06/09 04:58:22;;;;;;;6.50;1.92;;;;;;;;;;5039974;28;20120;-82
2022/06/09 05:00:48;;;;;;;8.57;1.65;;;;;;;;;;5022459;28;20064;-81
2022/06/09 05:03:13;;;;;;;5.95;1.63;;;;;;;;;;5004113;28;20041;-82
2022/06/09 05:05:40;;;;;;;9.23;2.92;;;;;;;;;;5003907;28;20037;-82
2022/06/09 05:08:06;;;;;;;5.97;1.85;;;;;;;;;;5003994;28;20030;-81
2022/06/09 05:10:31;;;;;;;5.55;2.22;;;;;;;;;;5004199;28;20518;-81
2022/06/09 05:12:57;;;;;;;4.50;1.50;;;;;;;;;;5003711;28;20159;-81
2022/06/09 05:15:22;;;;;;;7.30;1.65;;;;;;;;;;5003796;28;20396;-81
2022/06/09 05:17:48;;;;;;;8.65;2.15;;;;;;;;;;5020048;28;20029;-82
2022/06/09 05:20:16;;;;;;;4.38;1.30;;;;;;;;;;5003945;28;20091;-81
2022/06/09 05:22:41;;;;;;;8.30;2.33;;;;;;;;;;5004164;28;20087;-81
2022/06/09 05:25:08;;;;;;;10.27;2.15;;;;;;;;;;5003657;28;20041;-81
2022/06/09 05:27:34;;;;;;;3.97;1.77;;;;;;;;;;5000276;28;20501;-81
2022/06/09 05:30:00;;;;;;;4.93;1.35;;;;;;;;;;5000768;28;20049;-81
2022/06/09 05:32:26;;;;;;;5.00;2.05;;;;;;;;;;5011173;28;20036;-81
2022/06/09 05:34:51;;;;;;;7.53;1.98;;;;;;;;;;5008651;28;20034;-82
2022/06/09 05:37:18;;;;;;;5.30;1.90;;;;;;;;;;5014086;28;20083;-82
2022/06/09 05:45:13;;;;;;;5.82;2.17;;;;;;;;;;5022548;28;20037;-81
2022/06/09 05:47:38;;;;;;;10.27;2.38;;;;;;;;;;5019964;28;20155;-82
2022/06/09 05:50:05;;;;;;;7.15;2.47;;;;;;;;;;5000869;28;20030;-81
2022/06/09 05:52:30;;;;;;;6.60;1.92;;;;;;;;;;4984132;28;20037;-81
2022/06/09 05:54:57;;;;;;;6.80;1.92;;;;;;;;;;4999889;28;20034;-81
2022/06/09 05:57:22;;;;;;;8.02;2.05;;;;;;;;;;5000240;28;20034;-80
2022/06/09 05:59:48;;;;;;;5.60;2.05;;;;;;;;;;4999315;28;20050;-80
2022/06/09 06:02:15;;;;;;;4.82;1.88;;;;;;;;;;5010040;28;20034;-81
2022/06/09 06:04:40;;;;;;;5.30;2.42;;;;;;;;;;4996365;28;20108;-80
2022/06/09 06:07:06;;;;;;;7.97;2.03;;;;;;;;;;5013364;28;20484;-81
2022/06/09 06:09:32;;;;;;;8.38;2.20;;;;;;;;;;5012994;28;20046;-80
2022/06/09 06:11:57;;;;;;;6.85;1.88;;;;;;;;;;4996948;28;20414;-80
2022/06/09 06:14:23;;;;;;;12.88;2.95;;;;;;;;;;5013196;28;20120;-80
2022/06/09 06:16:49;;;;;;;10.60;2.70;;;;;;;;;;5013407;28;20033;-81
2022/06/09 06:19:17;;;;;;;11.38;3.42;;;;;;;;;;4996908;28;20099;-82
2022/06/09 06:21:43;;;;;;;12.68;3.88;;;;;;;;;;5013512;28;20473;-84
2022/06/09 06:24:09;;;;;;;11.02;3.60;;;;;;;;;;5014797;28;20038;-84
2022/06/09 06:26:34;;;;;;;9.48;3.55;;;;;;;;;;4999371;28;20130;-82
2022/06/09 06:29:00;;;;;;;8.60;3.40;;;;;;;;;;5012963;28;20029;-83
2022/06/09 06:31:25;;;;;;;9.20;2.65;;;;;;;;;;4998719;28;20030;-83
2022/06/09 06:33:51;;;;;;;13.48;3.60;;;;;;;;;;5000223;28;20079;-83
2022/06/09 06:36:17;;;;;;;10.85;3.05;;;;;;;;;;4983021;28;20412;-83
2022/06/09 06:38:42;;;;;;;10.07;2.42;;;;;;;;;;4983349;28;20033;-83
2022/06/09 06:41:09;;;;;;;8.90;2.90;;;;;;;;;;4999380;28;20056;-83
2022/06/09 06:43:36;;;;;;;11.27;3.35;;;;;;;;;;4983507;28;20052;-84
2022/06/09 06:46:02;;;;;;;9.45;3.50;;;;;;;;;;4999855;28;20082;-82
2022/06/09 06:48:28;;;;;;;10.25;3.10;;;;;;;;;;4999939;28;20037;-84
2022/06/09 06:50:54;;;;;;;10.82;3.00;;;;;;;;;;5007337;28;20042;-83
2022/06/09 06:53:19;;;;;;;11.30;3.10;;;;;;;;;;4996165;28;20045;-84
2022/06/09 06:55:46;;;;;;;8.23;2.60;;;;;;;;;;4995924;28;20033;-85
2022/06/09 06:58:11;;;;;;;11.50;3.72;;;;;;;;;;5022784;28;20084;-83
2022/06/09 07:00:38;;;;;;;12.32;2.83;;;;;;;;;;4982949;28;20029;-83
2022/06/09 07:03:05;;;;;;;11.50;3.35;;;;;;;;;;4980332;28;20042;-83
2022/06/09 07:05:30;;;;;;;12.85;2.45;;;;;;;;;;4996185;28;20030;-83
2022/06/09 07:07:56;;;;;;;12.02;2.65;;;;;;;;;;4996001;28;20381;-83
2022/06/09 07:10:22;;;;;;;7.57;2.33;;;;;;;;;;4996045;28;20041;-83
2022/06/09 07:12:48;;;;;;;8.02;2.33;;;;;;;;;;4996295;28;20040;-83
2022/06/09 07:15:14;;;;;;;9.55;2.67;;;;;;;;;;4978926;28;20125;-83
2022/06/09 07:17:40;;;;;;;14.30;2.70;;;;;;;;;;4995513;28;20576;-84
2022/06/09 07:20:06;;;;;;;10.35;2.35;;;;;;;;;;4995498;28;20026;-82
2022/06/09 07:22:32;;;;;;;8.00;2.17;;;;;;;;;;4995046;28;20046;-82
2022/06/09 07:24:57;;;;;;;9.50;2.22;;;;;;;;;;4996371;28;20558;-83
2022/06/09 07:27:23;;;;;;;12.80;3.08;;;;;;;;;;5003350;28;20055;-81
2022/06/09 07:29:48;;;;;;;8.43;2.60;;;;;;;;;;4995224;28;20037;-82
2022/06/09 07:32:14;;;;;;;7.55;2.72;;;;;;;;;;5012593;28;20422;-81
2022/06/09 07:34:39;;;;;;;6.72;2.40;;;;;;;;;;5014777;28;20033;-81
2022/06/09 07:37:05;;;;;;;9.40;2.60;;;;;;;;;;5011395;28;20096;-82
2022/06/09 07:39:31;;;;;;;10.95;2.45;;;;;;;;;;4994981;28;20026;-81
2022/06/09 07:41:56;;;;;;;10.02;2.80;;;;;;;;;;5011513;28;20045;-81
2022/06/09 07:44:22;;;;;;;10.60;2.30;;;;;;;;;;5011614;28;20037;-81
2022/06/09 07:46:47;;;;;;;6.80;3.08;;;;;;;;;;5027991;28;20116;-81
2022/06/09 07:49:13;;;;;;;6.82;2.38;;;;;;;;;;5027979;28;20030;-80
2022/06/09 07:51:38;;;;;;;9.98;2.67;;;;;;;;;;5014035;28;20496;-81
2022/06/09 07:54:04;;;;;;;5.53;2.30;;;;;;;;;;4981857;28;20041;-81
2022/06/09 07:56:32;;;;;;;8.82;3.00;;;;;;;;;;5014741;28;20095;-82
2022/06/09 07:58:58;;;;;;;6.25;2.20;;;;;;;;;;4982083;28;20518;-81
2022/06/09 08:01:23;;;;;;;5.35;2.40;;;;;;;;;;4995149;28;20034;-81
2022/06/09 08:03:49;;;;;;;8.93;2.60;;;;;;;;;;5011432;28;20405;-81
2022/06/09 08:06:14;;;;;;;6.55;2.65;;;;;;;;;;4994298;28;20519;-81
2022/06/09 08:08:40;;;;;;;8.32;3.10;;;;;;;;;;5010714;28;20041;-81
2022/06/09 08:11:07;;;;;;;6.47;2.50;;;;;;;;;;5011449;28;20034;-82
2022/06/09 08:13:33;;;;;;;7.22;3.28;;;;;;;;;;5011419;28;20041;-81
2022/06/09 08:15:58;;;;;;;7.93;2.47;;;;;;;;;;5011308;28;20048;-81
2022/06/09 08:18:24;;;;;;;7.07;2.42;;;;;;;;;;4994625;28;20041;-81
2022/06/09 08:20:49;;;;;;;6.63;2.83;;;;;;;;;;5010551;28;20046;-81
2022/06/09 08:23:17;;;;;;;6.80;2.83;;;;;;;;;;4994239;28;20467;-82
2022/06/09 08:25:44;;;;;;;8.05;3.05;;;;;;;;;;5011793;28;20113;-81
2022/06/09 08:28:09;;;;;;;8.73;3.15;;;;;;;;;;4994092;28;20033;-82
2022/06/09 08:30:35;;;;;;;6.65;2.22;;;;;;;;;;4978423;28;20045;-83
2022/06/09 08:33:00;;;;;;;9.93;2.97;;;;;;;;;;4994285;28;20033;-84
2022/06/09 08:35:26;;;;;;;9.55;2.80;;;;;;;;;;4978431;28;20038;-83
2022/06/09 08:37:51;;;;;;;9.85;3.03;;;;;;;;;;5013333;28;20037;-83
2022/06/09 08:40:21;;;;;;;8.00;2.92;;;;;;;;;;4979622;28;20514;-83
2022/06/09 08:43:10;;;;;;;9.65;3.65;;;;;;;;;;4979363;28;20681;-82
2022/06/09 08:45:37;;;;;;;10.20;2.83;;;;;;;;;;4980978;28;20504;-82
2022/06/09 08:48:05;;;;;;;8.52;3.30;;;;;;;;;;4997863;28;20519;-82
2022/06/09 08:50:36;;;;;;;9.88;3.33;;;;;;;;;;5008331;28;20116;-82
2022/06/09 08:53:08;;;;;;;6.28;3.13;;;;;;;;;;5033682;28;20032;-82
2022/06/09 08:55:39;;;;;;;7.72;3.10;;;;;;;;;;5033357;28;20122;-82
2022/06/09 08:58:19;;;;;;;12.18;3.58;;;;;;;;;;5017274;28;20029;-82
2022/06/09 09:00:55;;;;;;;5.57;3.13;;;;;;;;;;5017822;28;20037;-82
2022/06/09 09:03:28;;;;;;;5.38;2.67;;;;;;;;;;4981956;28;20033;-83
2022/06/09 09:06:04;;;;;;;8.38;3.88;;;;;;;;;;5030100;28;20053;-82
2022/06/09 09:08:29;;;;;;;7.55;2.80;;;;;;;;;;5014139;28;20499;-82
2022/06/09 09:11:42;;;;;;;7.70;2.65;;;;;;;;;;4997464;28;20037;-83
2022/06/09 09:14:13;;;;;;;7.60;2.97;;;;;;;;;;5013597;28;20048;-83
2022/06/09 09:16:50;;;;;;;8.88;2.70;;;;;;;;;;5013921;28;20045;-84
2022/06/09 09:19:33;;;;;;;11.80;3.08;;;;;;;;;;4998176;28;20133;-84
2022/06/09 09:22:09;;;;;;;12.73;3.33;;;;;;;;;;5013649;28;20037;-83
2022/06/09 09:24:39;;;;;;;7.43;3.08;;;;;;;;;;5013491;28;20038;-85
2022/06/09 09:27:32;;;;;;;13.50;3.28;;;;;;;;;;5013241;28;20128;-85
2022/06/09 09:30:18;;;;;;;10.65;3.63;;;;;;;;;;5013736;28;20039;-87
2022/06/09 09:32:46;;;;;;;12.40;3.38;;;;;;;;;;5013685;28;20033;-84
2022/06/09 09:35:24;;;;;;;10.00;2.55;;;;;;;;;;5013388;28;20036;-83
2022/06/09 09:37:52;;;;;;;11.05;3.17;;;;;;;;;;4994313;28;20053;-83
2022/06/09 09:40:35;;;;;;;8.02;3.13;;;;;;;;;;4981202;28;20033;-83
2022/06/09 09:43:11;;;;;;;11.45;3.10;;;;;;;;;;4998088;28;20034;-82
2022/06/09 09:45:42;;;;;;;9.70;3.00;;;;;;;;;;4998442;28;20053;-83
2022/06/09 09:48:17;;;;;;;18.00;3.88;;;;;;;;;;4997614;28;20034;-83
2022/06/09 09:51:03;;;;;;;10.70;3.15;;;;;;;;;;5033394;28;20123;-83
2022/06/09 09:53:31;;;;;;;7.55;2.65;;;;;;;;;;5000480;28;20042;-83
2022/06/09 09:55:57;;;;;;;13.43;5.85;;;;;;;;;;5017188;28;20120;-83
2022/06/09 09:58:38;;;;;;;14.77;6.93;;;;;;;;;;5000815;28;20037;-83
2022/06/09 10:01:05;;;;;;;14.25;6.07;;;;;;;;;;5033720;28;20029;-83
2022/06/09 10:09:33;;;;;;;11.05;4.90;;;;;;;;;;5019161;28;20045;-82
2022/06/09 10:12:10;;;;;;;12.90;5.78;;;;;;;;;;5001178;28;20464;-84
2022/06/09 10:14:44;;;;;;;10.93;5.75;;;;;;;;;;5000514;28;20112;-84
2022/06/09 10:17:38;;;;;;;10.93;4.75;;;;;;;;;;5000686;28;20040;-83
2022/06/09 10:20:27;;;;;;;10.77;4.45;;;;;;;;;;5016882;28;20132;-83
2022/06/09 10:23:07;;;;;;;12.15;4.93;;;;;;;;;;5016492;28;20616;-84
2022/06/09 10:25:52;;;;;;;8.77;4.15;;;;;;;;;;5017340;28;20060;-84
2022/06/09 10:28:39;;;;;;;10.00;4.15;;;;;;;;;;5012892;28;20125;-84
2022/06/09 10:31:09;;;;;;;10.63;4.43;;;;;;;;;;4997289;28;20037;-84
2022/06/09 10:33:40;;;;;;;8.10;3.92;;;;;;;;;;4997477;28;20129;-83
2022/06/09 10:36:23;;;;;;;7.38;3.42;;;;;;;;;;4983742;28;20116;-83
2022/06/09 10:38:51;;;;;;;;;;;;;;;;;;5000824;28;20033;-83
2022/06/09 10:41:36;;;;;;;7.63;3.38;;;;;;;;;;5016583;28;19955;-84
2022/06/09 10:44:08;;;;;;;7.78;2.90;;;;;;;;;;4984054;28;20132;-83
2022/06/09 10:46:35;;;;;;;8.20;3.20;;;;;;;;;;4983740;28;20036;-83
2022/06/09 10:55:24;;;;;;;8.25;2.83;;;;;;;;;;4996839;28;20041;-83
2022/06/09 10:58:10;;;;;;;7.13;2.42;;;;;;;;;;5011251;28;20702;-83
2022/06/09 11:00:40;;;;;;;11.45;3.10;;;;;;;;;;5012040;28;20025;-84
2022/06/09 11:03:19;;;;;;;7.00;2.78;;;;;;;;;;4964301;28;20080;-83
2022/06/09 11:06:04;;;;;;;5.35;2.35;;;;;;;;;;4979834;28;20069;-82
2022/06/09 11:08:44;;;;;;;9.05;3.00;;;;;;;;;;4980541;28;20038;-84
2022/06/09 11:11:34;;;;;;;14.20;3.47;;;;;;;;;;4995768;28;20511;-84
2022/06/09 11:14:10;;;;;;;5.03;2.60;;;;;;;;;;5011568;28;20026;-85
2022/06/09 11:16:41;;;;;;;18.05;4.50;;;;;;;;;;4979786;28;20034;-84
2022/06/09 11:19:30;;;;;;;13.23;3.20;;;;;;;;;;5012098;28;20038;-83
2022/06/09 11:22:08;;;;;;;5.95;2.45;;;;;;;;;;4981649;28;20397;-84
2022/06/09 11:24:53;;;;;;;8.65;2.28;;;;;;;;;;4996109;28;20059;-83
2022/06/09 11:27:21;;;;;;;4.63;2.17;;;;;;;;;;5005502;28;20122;-83
2022/06/09 11:29:54;;;;;;;7.32;2.20;;;;;;;;;;5010840;28;20034;-83
2022/06/09 11:32:19;;;;;;;4.07;1.73;;;;;;;;;;4994725;28;20443;-83
2022/06/09 11:34:50;;;;;;;5.72;3.10;;;;;;;;;;5028337;28;20124;-83
2022/06/09 11:37:46;;;;;;;8.32;2.20;;;;;;;;;;5010987;28;20113;-83
2022/06/09 11:40:30;;;;;;;3.97;2.05;;;;;;;;;;5019747;28;20129;-83
2022/06/09 11:43:16;;;;;;;9.60;2.20;;;;;;;;;;4996124;28;20037;-83
2022/06/09 11:45:48;;;;;;;4.50;1.92;;;;;;;;;;5027674;28;20049;-83
2022/06/09 11:48:28;;;;;;;6.60;1.73;;;;;;;;;;4995463;28;20038;-83
2022/06/09 11:50:54;;;;;;;6.82;2.10;;;;;;;;;;5045062;28;20284;-83
2022/06/09 11:53:24;;;;;;;4.85;1.98;;;;;;;;;;5001707;28;20040;-82
2022/06/09 11:55:59;;;;;;;7.85;2.67;;;;;;;;;;5002302;28;20036;-84
2022/06/09 11:58:34;;;;;;;5.85;1.58;;;;;;;;;;5004065;28;20425;-82
2022/06/09 12:01:18;;;;;;;11.27;1.77;;;;;;;;;;5031034;28;20033;-82
2022/06/09 12:04:03;;;;;;;7.45;2.03;;;;;;;;;;5014577;28;20124;-84
2022/06/09 12:06:43;;;;;;;5.65;1.77;;;;;;;;;;5014595;28;20040;-84
2022/06/09 12:09:33;;;;;;;8.75;1.67;;;;;;;;;;5013917;28;20542;-82
2022/06/09 12:12:10;;;;;;;5.30;2.10;;;;;;;;;;5017376;28;20040;-83
2022/06/09 12:14:36;;;;;;;8.38;6.93;;;;;;;;;;4982331;28;20029;-82
2022/06/09 12:17:20;;;;;;;9.38;4.82;;;;;;;;;;4998154;28;20030;-82
2022/06/09 12:19:57;;;;;;;10.43;5.35;;;;;;;;;;4982165;28;20120;-84
2022/06/09 12:22:41;;;;;;;9.50;5.25;;;;;;;;;;4998515;28;20087;-84
2022/06/09 12:25:17;;;;;;;8.68;5.07;;;;;;;;;;5014245;28;20037;-83
2022/06/09 12:27:49;;;;;;;8.27;4.82;;;;;;;;;;5029436;28;20045;-83
2022/06/09 12:30:15;;;;;;;8.68;4.57;;;;;;;;;;5014235;28;20041;-84
2022/06/09 12:32:46;;;;;;;6.97;4.68;;;;;;;;;;5014088;28;20412;-84
2022/06/09 12:35:24;;;;;;;7.55;4.35;;;;;;;;;;4997844;28;20036;-84
2022/06/09 12:38:01;;;;;;;7.95;3.92;;;;;;;;;;5010871;28;20029;-83
2022/06/09 12:40:42;;;;;;;7.63;3.53;;;;;;;;;;4978403;28;20041;-83
2022/06/09 12:43:23;;;;;;;9.23;3.85;;;;;;;;;;4981493;28;20559;-84
2022/06/09 12:46:21;;;;;;;7.50;3.90;;;;;;;;;;5011386;28;20125;-83
2022/06/09 12:48:47;;;;;;;6.75;3.30;;;;;;;;;;4994090;28;20034;-83
2022/06/09 12:51:22;;;;;;;11.85;3.78;;;;;;;;;;5027263;28;20491;-83
2022/06/09 12:54:00;;;;;;;6.65;3.53;;;;;;;;;;5001150;28;20041;-83
2022/06/09 12:56:34;;;;;;;6.75;3.47;;;;;;;;;;5017338;28;20547;-83
2022/06/09 12:59:04;;;;;;;8.60;3.60;;;;;;;;;;5001753;28;20111;-84
2022/06/09 13:01:30;;;;;;;7.40;2.95;;;;;;;;;;4990186;28;20054;-84
2022/06/09 13:03:59;;;;;;;5.95;3.00;;;;;;;;;;5026604;28;20034;-83
2022/06/09 13:06:27;;;;;;;9.18;2.78;;;;;;;;;;4993689;28;20045;-86
2022/06/09 13:08:58;;;;;;;6.82;2.58;;;;;;;;;;5026599;28;20130;-82
2022/06/09 13:12:50;;;;;;;6.80;1.88;;;;;;;;;;4997269;28;20033;-83
2022/06/09 13:14:11;;;;;;;7.22;2.05;;;;;;;;;;5033341;28;20087;-84
2022/06/09 13:16:40;;;;;;;4.95;1.67;;;;;;;;;;5017863;28;20033;-84
2022/06/09 13:19:07;;;;;;;8.35;2.28;;;;;;;;;;5001854;28;20071;-83
2022/06/09 13:21:37;;;;;;;6.55;1.75;;;;;;;;;;5017737;28;20048;-83
2022/06/09 13:24:04;;;;;;;4.22;1.92;;;;;;;;;;5017253;28;20065;-83
2022/06/09 13:26:36;;;;;;;4.30;1.77;;;;;;;;;;4984597;28;20033;-83
2022/06/09 13:29:06;;;;;;;8.10;1.50;;;;;;;;;;5017432;28;20033;-82
2022/06/09 13:31:36;;;;;;;6.15;1.98;;;;;;;;;;5017495;28;20073;-83
2022/06/09 13:34:13;;;;;;;6.70;1.80;;;;;;;;;;5018505;28;20033;-83
2022/06/09 13:36:55;;;;;;;5.05;1.85;;;;;;;;;;5026985;28;20049;-83
2022/06/09 13:39:32;;;;;;;5.57;1.70;;;;;;;;;;5012952;28;20034;-83
2022/06/09 13:42:12;;;;;;;6.75;1.60;;;;;;;;;;5012501;28;20034;-83
2022/06/09 13:44:54;;;;;;;7.85;2.00;;;;;;;;;;5013834;28;20073;-82
2022/06/09 13:47:28;;;;;;;7.20;1.98;;;;;;;;;;4966048;28;20033;-83
2022/06/09 13:50:12;;;;;;;6.90;2.17;;;;;;;;;;4986932;28;20484;-84
2022/06/09 13:52:43;;;;;;;14.82;2.95;;;;;;;;;;5016694;28;20033;-82
2022/06/09 13:55:25;;;;;;;19.75;4.47;;;;;;;;;;4999373;28;20148;-84
2022/06/09 13:57:53;;;;;;;34.45;5.28;;;;;;;;;;4981744;28;20120;-81
2022/06/09 14:00:27;;;;;;;23.15;4.10;;;;;;;;;;5005446;28;20038;-82
2022/06/09 14:02:59;;;;;;;37.47;5.90;;;;;;;;;;4998841;28;20025;-82
2022/06/09 14:05:24;;;;;;;;;;;;;;;;;;5017345;28;20381;-82
2022/06/09 14:07:50;;;;;;;15.23;4.13;;;;;;;;;;5033320;28;19919;-82
2022/06/09 14:10:21;;;;;;;15.57;2.80;;;;;;;;;;5000036;28;20041;-81
2022/06/09 14:12:46;;;;;;;11.55;2.75;;;;;;;;;;5032952;28;20048;-80
2022/06/09 14:15:12;;;;;;;11.43;2.42;;;;;;;;;;4999800;28;20470;-81
2022/06/09 14:17:37;;;;;;;10.30;2.50;;;;;;;;;;5016288;28;20045;-81
2022/06/09 14:20:04;;;;;;;16.63;3.08;;;;;;;;;;5016297;28;20403;-82
2022/06/09 14:22:29;;;;;;;6.68;2.45;;;;;;;;;;5016010;28;20150;-81
2022/06/09 14:24:54;;;;;;;9.75;2.38;;;;;;;;;;5014826;28;20554;-81
2022/06/09 14:27:21;;;;;;;5.35;1.90;;;;;;;;;;5032863;28;20044;-81
2022/06/09 14:29:47;;;;;;;12.63;2.83;;;;;;;;;;5016090;28;20041;-81
2022/06/09 14:32:15;;;;;;;13.75;3.00;;;;;;;;;;5016716;28;20037;-80
2022/06/09 14:34:41;;;;;;;11.35;2.80;;;;;;;;;;5016344;28;20041;-81
2022/06/09 14:37:06;;;;;;;15.32;3.08;;;;;;;;;;5012736;28;20072;-81
2022/06/09 14:39:32;;;;;;;15.02;3.65;;;;;;;;;;4996100;28;20033;-81
2022/06/09 14:41:57;;;;;;;8.77;2.75;;;;;;;;;;4996432;28;20061;-81
2022/06/09 14:44:23;;;;;;;7.53;2.35;;;;;;;;;;4996139;28;20455;-80
2022/06/09 14:46:48;;;;;;;5.55;2.10;;;;;;;;;;4996348;28;20034;-80
2022/06/09 14:49:19;;;;;;;12.10;3.00;;;;;;;;;;4996576;28;20116;-80
2022/06/09 14:51:45;;;;;;;9.00;2.35;;;;;;;;;;4999984;28;20103;-80
2022/06/09 14:54:11;;;;;;;8.02;2.35;;;;;;;;;;5015018;28;20034;-81
2022/06/09 14:56:38;;;;;;;7.95;2.75;;;;;;;;;;4999532;28;20087;-81
2022/06/09 14:59:04;;;;;;;9.60;2.25;;;;;;;;;;4999316;28;20055;-81
2022/06/09 15:01:29;;;;;;;8.10;2.03;;;;;;;;;;5012045;28;20049;-81
2022/06/09 15:03:55;;;;;;;11.18;2.03;;;;;;;;;;5012242;28;20053;-80
2022/06/09 15:06:20;;;;;;;8.68;2.05;;;;;;;;;;5028829;28;20053;-81
2022/06/09 15:08:47;;;;;;;8.60;2.47;;;;;;;;;;5012065;28;20104;-81
2022/06/09 15:11:14;;;;;;;7.18;2.38;;;;;;;;;;4995727;28;20029;-81
2022/06/09 15:13:40;;;;;;;10.98;2.22;;;;;;;;;;4996174;28;20113;-81
2022/06/09 15:16:06;;;;;;;10.82;2.65;;;;;;;;;;5028742;28;20133;-81
2022/06/09 15:18:32;;;;;;;8.88;1.73;;;;;;;;;;4979568;28;20034;-81